createdAt,value
2019-05-10T06:16:51.392Z,10.80
2019-05-10T06:19:36.882Z,11.50
2019-05-10T06:22:14.655Z,12.80
2019-05-10T06:24:52.363Z,10.80
2019-05-10T06:27:30.069Z,11.60
2019-05-10T06:36:32.028Z,12.30
2019-05-10T06:39:19.524Z,12.40
2019-05-10T06:41:55.992Z,12.80
2019-05-10T06:44:31.131Z,12.60
2019-05-10T06:47:28.187Z,12.40
2019-05-10T06:50:08.644Z,12.60
2019-05-10T06:52:51.948Z,12.30
2019-05-10T06:55:30.681Z,12.30
2019-05-10T06:58:09.222Z,12.10
2019-05-10T07:00:45.609Z,12.30
2019-05-10T07:03:17.116Z,11.70
2019-05-10T07:05:55.318Z,11.90
2019-05-10T07:08:44.396Z,12.10
2019-05-10T07:11:14.558Z,12.40
2019-05-10T07:13:59.302Z,11.90
2019-05-10T07:16:32.113Z,11.80
2019-05-10T07:19:09.644Z,12.30
2019-05-10T07:21:50.791Z,11.30
2019-05-10T07:24:36.464Z,12.20
2019-05-10T07:27:16.949Z,11.50
2019-05-10T07:29:53.463Z,11.20
2019-05-10T07:32:33.311Z,11.40
2019-05-10T07:35:13.951Z,11.90
2019-05-10T07:37:53.106Z,11.70
2019-05-10T07:40:36.486Z,12.60
2019-05-10T07:43:09.268Z,12.30
2019-05-10T07:45:46.204Z,12.20
2019-05-10T07:48:23.259Z,11.80
2019-05-10T07:51:02.290Z,12.00
2019-05-10T07:53:57.022Z,12.50
2019-05-10T07:56:30.439Z,12.60
2019-05-10T07:59:27.957Z,12.70
2019-05-10T08:01:59.535Z,13.10
2019-05-10T08:07:14.342Z,13.10
2019-05-10T08:09:48.789Z,13.40
2019-05-10T08:12:21.073Z,13.40
2019-05-10T08:15:24.732Z,13.50
2019-05-10T08:17:59.500Z,13.70
2019-05-10T08:20:50.347Z,13.00
2019-05-10T08:23:23.746Z,13.00
2019-05-10T08:25:58.281Z,12.80
2019-05-10T08:28:37.847Z,12.60
2019-05-10T08:31:14.551Z,12.30
2019-05-10T08:33:58.731Z,12.50
2019-05-10T08:36:45.864Z,12.50
2019-05-10T08:39:22.360Z,12.70
2019-05-10T08:42:03.898Z,12.80
2019-05-10T08:44:32.700Z,12.80
2019-05-10T08:47:07.750Z,13.20
2019-05-10T08:50:06.042Z,13.20
2019-05-10T08:52:33.967Z,13.10
2019-05-10T08:55:12.636Z,12.90
2019-05-10T08:57:53.611Z,12.70
2019-05-10T09:00:41.501Z,12.90
2019-05-10T09:03:18.559Z,13.40
2019-05-10T09:05:52.609Z,13.40
2019-05-10T09:08:34.703Z,12.60
2019-05-10T09:11:12.337Z,13.30
2019-05-10T09:13:46.161Z,13.70
2019-05-10T09:16:23.915Z,13.90
2019-05-10T09:19:04.622Z,13.30
2019-05-10T09:21:40.981Z,13.20
2019-05-10T09:26:52.826Z,13.30
2019-05-10T09:29:33.023Z,13.50
2019-05-10T09:32:06.187Z,13.50
2019-05-10T09:34:42.803Z,13.00
2019-05-10T09:37:18.003Z,12.80
2019-05-10T09:39:55.476Z,13.00
2019-05-10T09:42:37.405Z,13.50
2019-05-10T09:45:13.065Z,13.50
2019-05-10T09:47:47.359Z,13.30
2019-05-10T09:50:30.365Z,13.20
2019-05-10T09:53:07.349Z,13.20
2019-05-10T09:55:55.213Z,13.10
2019-05-10T09:58:34.139Z,13.20
2019-05-10T10:01:21.753Z,13.10
2019-05-10T10:04:02.124Z,13.00
2019-05-10T10:06:48.267Z,13.20
2019-05-10T10:12:28.875Z,13.30
2019-05-10T10:15:10.692Z,13.20
2019-05-10T10:17:54.653Z,13.50
2019-05-10T10:20:36.111Z,13.50
2019-05-10T10:23:13.264Z,14.10
2019-05-10T10:25:48.399Z,14.30
2019-05-10T10:28:31.213Z,13.80
2019-05-10T10:31:05.455Z,13.60
2019-05-10T10:33:38.823Z,13.70
2019-05-10T10:36:11.419Z,14.10
2019-05-10T10:38:45.713Z,14.20
2019-05-10T10:43:58.123Z,13.70
2019-05-10T10:46:34.673Z,13.60
2019-05-10T10:49:32.380Z,13.70
2019-05-10T10:52:11.256Z,14.10
2019-05-10T10:54:47.978Z,14.30
2019-05-10T10:57:22.440Z,14.50
2019-05-10T10:59:57.488Z,14.20
2019-05-10T11:02:46.948Z,13.90
2019-05-10T11:05:24.061Z,13.90
2019-05-10T11:08:01.212Z,14.60
2019-05-10T11:10:40.486Z,14.60
2019-05-10T11:13:44.896Z,14.60
2019-05-10T11:16:15.537Z,14.60
2019-05-10T11:18:51.731Z,14.40
2019-05-10T11:21:41.534Z,14.00
2019-05-10T11:27:23.097Z,14.40
2019-05-10T11:30:00.959Z,14.70
2019-05-10T11:32:57.515Z,14.80
2019-05-10T11:35:34.226Z,14.70
2019-05-10T11:38:16.089Z,14.70
2019-05-10T11:40:49.404Z,14.90
2019-05-10T11:43:37.025Z,15.00
2019-05-10T11:46:15.469Z,15.30
2019-05-10T11:49:01.781Z,15.50
2019-05-10T11:51:47.961Z,15.60
2019-05-10T11:54:26.118Z,15.90
2019-05-10T11:59:05.080Z,16.10
2019-05-10T11:59:51.327Z,15.60
2019-05-10T12:05:20.524Z,15.30
2019-05-10T12:08:02.263Z,15.60
2019-05-10T12:10:52.777Z,15.70
2019-05-10T12:13:25.911Z,16.20
2019-05-10T12:16:16.159Z,16.20
2019-05-10T12:19:06.839Z,15.90
2019-05-10T12:21:37.628Z,16.20
2019-05-10T12:26:15.807Z,16.80
2019-05-10T12:26:27.297Z,14.90
2019-05-10T12:27:24.861Z,16.00
2019-05-10T12:29:41.473Z,16.10
2019-05-10T12:32:14.307Z,16.10
2019-05-10T12:34:58.420Z,16.00
2019-05-10T12:37:39.536Z,16.50
2019-05-10T12:40:28.270Z,16.60
2019-05-10T12:43:07.010Z,16.10
2019-05-10T12:45:46.521Z,16.20
2019-05-10T12:48:36.027Z,16.60
2019-05-10T12:51:25.152Z,17.00
2019-05-10T12:54:07.127Z,16.80
2019-05-10T12:56:50.829Z,17.20
2019-05-10T12:59:36.629Z,17.00
2019-05-10T13:02:15.978Z,16.30
2019-05-10T13:06:19.606Z,16.20
2019-05-10T13:09:02.114Z,16.90
2019-05-10T13:11:43.154Z,16.20
2019-05-10T13:14:28.809Z,16.40
2019-05-10T13:17:03.880Z,16.80
2019-05-10T13:19:44.505Z,16.90
2019-05-10T13:22:22.996Z,17.30
2019-05-10T13:25:03.220Z,17.60
2019-05-10T13:27:56.064Z,17.90
2019-05-10T13:30:34.325Z,18.60
2019-05-10T13:36:30.567Z,18.20
2019-05-10T13:39:25.259Z,18.50
2019-05-10T13:42:05.140Z,17.10
2019-05-10T13:44:49.789Z,18.90
2019-05-10T13:47:31.784Z,18.40
2019-05-10T13:52:53.525Z,18.10
2019-05-10T13:58:35.295Z,16.90
2019-05-10T14:01:19.732Z,17.80
2019-05-10T14:04:03.518Z,17.50
2019-05-10T14:06:45.550Z,18.00
2019-05-10T14:15:14.819Z,18.40
2019-05-10T14:17:58.743Z,18.00
2019-05-10T14:20:39.503Z,17.80
2019-05-10T14:23:35.219Z,17.60
2019-05-10T14:26:29.828Z,17.20
2019-05-10T14:29:33.380Z,16.40
2019-05-10T14:32:17.546Z,16.30
2019-05-10T14:34:57.862Z,17.00
2019-05-10T14:37:39.286Z,17.70
2019-05-10T14:40:27.812Z,17.30
2019-05-10T14:46:13.539Z,16.80
2019-05-10T14:49:09.805Z,17.10
2019-05-10T14:51:58.399Z,17.40
2019-05-10T14:54:23.836Z,17.50
2019-05-10T14:57:04.255Z,17.20
2019-05-10T15:02:44.484Z,16.40
2019-05-10T15:05:26.572Z,16.30
2019-05-10T15:08:15.907Z,16.20
2019-05-10T15:11:01.832Z,16.50
2019-05-10T15:13:49.711Z,16.40
2019-05-10T15:19:36.779Z,17.00
2019-05-10T15:22:23.103Z,17.30
2019-05-10T15:25:06.210Z,18.00
2019-05-10T15:27:45.694Z,18.30
2019-05-10T15:30:53.802Z,18.80
2019-05-10T15:33:34.732Z,19.70
2019-05-10T15:39:05.350Z,17.60
2019-05-10T15:41:59.564Z,17.60
2019-05-10T15:44:49.268Z,18.80
2019-05-10T15:47:31.908Z,19.40
2019-05-10T15:53:28.038Z,17.90
2019-05-10T16:02:25.914Z,17.90
2019-05-10T16:05:22.237Z,17.70
2019-05-10T16:07:51.546Z,18.60
2019-05-10T16:10:43.332Z,19.50
2019-05-10T16:16:19.554Z,18.70
2019-05-10T16:19:01.799Z,18.40
2019-05-10T16:21:46.696Z,18.30
2019-05-10T16:24:28.231Z,18.40
2019-05-10T16:27:02.900Z,18.10
2019-05-10T16:29:43.539Z,18.20
2019-05-10T16:32:29.202Z,18.90
2019-05-10T16:35:12.930Z,19.70
2019-05-10T16:37:56.669Z,19.10
2019-05-10T16:40:56.822Z,18.90
2019-05-10T16:43:29.067Z,18.90
2019-05-10T16:46:13.103Z,19.20
2019-05-10T16:48:50.255Z,19.20
2019-05-10T16:51:42.405Z,18.50
2019-05-10T16:54:25.209Z,17.50
2019-05-10T16:57:22.775Z,17.50
2019-05-10T17:00:08.302Z,17.00
2019-05-10T17:02:43.789Z,16.30
2019-05-10T17:05:20.933Z,16.40
2019-05-10T17:08:03.773Z,16.30
2019-05-10T17:13:14.492Z,16.00
2019-05-10T17:15:58.067Z,16.20
2019-05-10T17:18:34.781Z,16.10
2019-05-10T17:21:09.628Z,16.20
2019-05-10T17:26:32.487Z,15.90
2019-05-10T17:29:18.152Z,15.60
2019-05-10T17:31:56.468Z,15.40
2019-05-10T17:34:36.761Z,15.60
2019-05-10T17:37:11.325Z,16.40
2019-05-10T17:39:45.331Z,17.30
2019-05-10T17:42:24.409Z,17.50
2019-05-10T17:45:01.826Z,17.30
2019-05-10T17:47:36.424Z,16.70
2019-05-10T17:50:14.161Z,16.30
2019-05-10T17:52:49.322Z,15.80
2019-05-10T17:55:25.406Z,15.50
2019-05-10T17:57:58.700Z,15.50
2019-05-10T18:00:34.970Z,15.00
2019-05-10T18:03:13.217Z,14.90
2019-05-10T18:05:51.213Z,14.80
2019-05-10T18:08:22.047Z,14.80
2019-05-10T18:10:57.359Z,14.80
2019-05-10T18:13:42.630Z,15.30
2019-05-10T18:16:17.074Z,15.00
2019-05-10T18:18:53.505Z,14.90
2019-05-10T18:21:25.513Z,14.80
2019-05-10T18:23:59.824Z,14.40
2019-05-10T18:26:34.261Z,13.80
2019-05-10T18:29:06.501Z,14.00
2019-05-10T18:31:40.303Z,13.80
2019-05-10T18:34:12.372Z,13.50
2019-05-10T18:36:52.402Z,15.40
2019-05-10T18:39:21.796Z,13.10
2019-05-10T18:41:56.993Z,12.90
2019-05-10T18:44:29.747Z,12.80
2019-05-10T18:47:06.821Z,12.80
2019-05-10T18:49:40.816Z,12.80
2019-05-10T18:52:21.647Z,12.60
2019-05-10T18:55:00.504Z,12.30
2019-05-10T18:57:39.561Z,12.10
2019-05-10T19:00:23.235Z,12.10
2019-05-10T19:03:05.134Z,11.90
2019-05-10T19:05:48.961Z,11.70
2019-05-10T19:08:34.247Z,11.50
2019-05-10T19:11:14.817Z,11.60
2019-05-10T19:13:54.638Z,11.60
2019-05-10T19:16:34.361Z,11.40
2019-05-10T19:19:11.103Z,11.00
2019-05-10T19:21:53.204Z,10.80
2019-05-10T19:24:30.308Z,10.70
2019-05-10T19:27:07.282Z,10.50
2019-05-10T19:33:17.720Z,10.50
2019-05-10T19:35:57.814Z,10.50
2019-05-10T19:38:33.261Z,10.50
2019-05-10T19:41:12.207Z,10.40
2019-05-10T19:44:10.789Z,10.40
2019-05-10T19:46:52.017Z,10.40
2019-05-10T19:50:03.204Z,10.40
2019-05-10T19:52:39.817Z,10.30
2019-05-10T19:56:54.928Z,10.20
2019-05-10T19:59:48.573Z,10.30
2019-05-10T20:02:27.902Z,10.20
2019-05-10T20:05:05.143Z,10.20
2019-05-10T20:07:59.817Z,10.10
2019-05-10T20:10:41.955Z,9.90
2019-05-10T20:13:21.327Z,9.80
2019-05-10T20:16:01.082Z,9.80
2019-05-10T20:18:36.679Z,11.00
2019-05-10T20:21:11.095Z,9.70
2019-05-10T20:26:27.476Z,9.60
2019-05-10T20:29:03.143Z,10.90
2019-05-10T20:31:39.228Z,9.70
2019-05-10T20:34:14.226Z,9.80
2019-05-10T20:36:49.184Z,9.80
2019-05-10T20:39:27.414Z,9.70
2019-05-10T20:42:01.838Z,9.80
2019-05-10T20:45:12.644Z,9.90
2019-05-10T20:48:04.421Z,9.80
2019-05-10T20:50:41.943Z,9.70
2019-05-10T20:53:31.500Z,9.60
2019-05-10T20:58:58.052Z,7.70
2019-05-10T21:01:49.212Z,9.60
2019-05-10T21:04:24.688Z,9.60
2019-05-10T21:07:04.927Z,9.50
2019-05-10T21:09:38.064Z,9.50
2019-05-10T21:12:12.036Z,9.50
2019-05-10T21:14:45.796Z,9.60
2019-05-10T21:17:20.165Z,9.60
2019-05-10T21:19:52.563Z,9.60
2019-05-10T21:22:25.501Z,9.50
2019-05-10T21:24:57.849Z,9.50
2019-05-10T21:27:31.962Z,9.50
2019-05-10T21:30:07.933Z,9.50
2019-05-10T21:32:45.059Z,9.50
2019-05-10T21:35:18.358Z,9.50
2019-05-10T21:37:51.601Z,9.60
2019-05-10T21:40:23.912Z,9.80
2019-05-10T21:45:40.623Z,9.80
2019-05-10T21:51:10.174Z,9.50
2019-05-10T21:53:58.739Z,9.40
2019-05-10T21:56:37.493Z,10.60
2019-05-10T21:59:11.277Z,9.50
2019-05-10T22:01:51.949Z,9.50
2019-05-10T22:04:37.552Z,9.60
2019-05-10T22:07:14.040Z,9.60
2019-05-10T22:10:09.263Z,9.60
2019-05-10T22:12:54.985Z,9.50
2019-05-10T22:15:32.958Z,9.50
2019-05-10T22:21:11.643Z,9.50
2019-05-10T22:23:43.626Z,9.50
2019-05-10T22:26:22.861Z,9.40
2019-05-10T22:29:01.019Z,9.40
2019-05-10T22:31:35.522Z,9.40
2019-05-10T22:34:26.861Z,9.30
2019-05-10T22:37:02.939Z,9.20
2019-05-10T22:39:36.756Z,9.30
2019-05-10T22:42:10.628Z,9.30
2019-05-10T22:44:54.165Z,9.30
2019-05-10T22:47:26.679Z,9.20
2019-05-10T22:50:00.962Z,9.30
2019-05-10T22:52:33.808Z,9.40
2019-05-10T22:55:07.134Z,9.50
2019-05-10T22:57:42.446Z,9.50
2019-05-10T23:00:18.463Z,9.20
2019-05-10T23:02:52.985Z,9.30
2019-05-10T23:05:25.747Z,9.20
2019-05-10T23:07:59.330Z,9.10
2019-05-10T23:10:56.961Z,9.10
2019-05-10T23:13:30.307Z,9.10
2019-05-10T23:16:07.395Z,9.10
2019-05-10T23:21:46.062Z,9.10
